createdAt,value
2023-01-21T00:01:19.737Z,69.05
2023-01-21T00:03:46.954Z,69.87
2023-01-21T00:06:17.199Z,69.01
2023-01-21T00:08:43.933Z,69.10
2023-01-21T00:11:15.572Z,70.06
2023-01-21T00:13:43.814Z,69.13
2023-01-21T00:16:11.610Z,68.07
2023-01-21T00:18:38.230Z,67.35
2023-01-21T00:21:05.250Z,66.54
2023-01-21T00:23:31.889Z,67.96
2023-01-21T00:26:00.368Z,66.05
2023-01-21T00:28:31.807Z,66.21
2023-01-21T00:31:00.252Z,66.92
2023-01-21T00:33:28.441Z,67.60
2023-01-21T00:36:05.116Z,66.61
2023-01-21T00:38:32.477Z,66.13
2023-01-21T00:41:04.490Z,66.63
2023-01-21T00:43:31.493Z,65.62
2023-01-21T00:45:58.497Z,65.42
2023-01-21T00:48:25.563Z,66.20
2023-01-21T00:50:53.838Z,66.52
2023-01-21T00:53:20.869Z,67.23
2023-01-21T00:55:47.754Z,67.43
2023-01-21T00:58:14.601Z,67.26
2023-01-21T01:00:41.505Z,67.78
2023-01-21T01:03:08.353Z,69.37
2023-01-21T01:05:35.085Z,68.88
2023-01-21T01:08:01.851Z,68.55
2023-01-21T01:10:28.528Z,69.11
2023-01-21T01:12:55.371Z,72.80
2023-01-21T01:15:21.987Z,75.28
2023-01-21T01:17:48.630Z,75.16
2023-01-21T01:20:15.729Z,75.23
2023-01-21T01:22:42.663Z,74.07
2023-01-21T01:25:09.767Z,75.20
2023-01-21T01:27:36.405Z,75.11
2023-01-21T01:30:03.226Z,77.91
2023-01-21T01:32:29.888Z,76.91
2023-01-21T01:34:56.641Z,75.97
2023-01-21T01:37:23.257Z,75.89
2023-01-21T01:39:49.931Z,77.53
2023-01-21T01:42:17.475Z,76.17
2023-01-21T01:45:05.475Z,81.49
2023-01-21T01:47:39.995Z,80.79
2023-01-21T01:50:11.345Z,80.62
2023-01-21T01:52:39.789Z,81.83
2023-01-21T01:55:08.015Z,82.41
2023-01-21T01:57:38.345Z,81.32
2023-01-21T02:00:08.332Z,79.02
2023-01-21T02:02:42.880Z,77.34
2023-01-21T02:05:11.518Z,73.86
2023-01-21T02:07:44.507Z,73.25
2023-01-21T02:10:14.889Z,77.34
2023-01-21T02:12:44.206Z,77.74
2023-01-21T02:15:12.267Z,78.92
2023-01-21T02:17:58.964Z,77.28
2023-01-21T02:20:43.806Z,77.28
2023-01-21T02:23:28.946Z,75.97
2023-01-21T02:26:01.429Z,76.24
2023-01-21T02:28:49.944Z,80.44
2023-01-21T02:31:50.450Z,81.13
2023-01-21T02:34:56.302Z,76.32
2023-01-21T02:37:25.780Z,74.44
2023-01-21T02:40:17.868Z,74.94
2023-01-21T02:42:57.932Z,75.62
2023-01-21T02:45:37.937Z,80.85
2023-01-21T02:48:21.803Z,85.13
2023-01-21T02:50:52.121Z,88.32
2023-01-21T02:53:23.323Z,85.78
2023-01-21T02:55:50.222Z,85.94
2023-01-21T02:58:21.737Z,86.40
2023-01-21T03:01:26.050Z,87.08
2023-01-21T03:03:58.502Z,88.47
2023-01-21T03:06:37.382Z,89.07
2023-01-21T03:09:25.523Z,86.20
2023-01-21T03:12:29.598Z,82.81
2023-01-21T03:15:27.570Z,78.82
2023-01-21T03:18:01.178Z,78.13
2023-01-21T03:20:37.641Z,77.59
2023-01-21T03:23:10.807Z,77.17
2023-01-21T03:25:40.253Z,77.28
2023-01-21T03:28:11.979Z,78.29
2023-01-21T03:30:41.714Z,78.36
2023-01-21T03:33:11.435Z,78.30
2023-01-21T03:35:44.614Z,79.20
2023-01-21T03:38:11.243Z,82.37
2023-01-21T03:40:50.556Z,87.29
2023-01-21T03:43:17.742Z,89.29
2023-01-21T03:46:27.327Z,91.75
2023-01-21T03:48:58.577Z,88.45
2023-01-21T03:51:34.302Z,85.03
2023-01-21T03:54:01.107Z,81.65
2023-01-21T03:56:27.988Z,76.96
2023-01-21T03:58:55.388Z,75.77
2023-01-21T04:01:22.410Z,74.05
2023-01-21T04:03:49.414Z,73.98
2023-01-21T04:06:19.103Z,74.23
2023-01-21T04:08:45.777Z,74.70
2023-01-21T04:11:12.561Z,74.71
2023-01-21T04:13:39.360Z,74.07
2023-01-21T04:16:06.698Z,74.12
2023-01-21T04:18:33.382Z,74.34
2023-01-21T04:20:59.984Z,74.82
2023-01-21T04:23:26.812Z,74.52
2023-01-21T04:25:53.653Z,74.57
2023-01-21T04:28:20.523Z,75.68
2023-01-21T04:30:48.429Z,75.06
2023-01-21T04:33:15.957Z,73.00
2023-01-21T04:35:42.581Z,72.86
2023-01-21T04:38:09.200Z,73.29
2023-01-21T04:40:35.883Z,71.80
2023-01-21T04:43:02.585Z,76.70
2023-01-21T04:45:29.439Z,81.70
2023-01-21T04:47:56.220Z,82.63
2023-01-21T04:50:22.799Z,85.45
2023-01-21T04:52:49.409Z,88.13
2023-01-21T04:55:16.081Z,87.93
2023-01-21T04:57:42.788Z,87.81
2023-01-21T05:00:09.960Z,89.54
2023-01-21T05:02:36.713Z,90.78
2023-01-21T05:05:03.755Z,89.99
2023-01-21T05:07:30.477Z,89.92
2023-01-21T05:09:57.131Z,88.87
2023-01-21T05:12:23.799Z,87.44
2023-01-21T05:14:54.792Z,86.54
2023-01-21T05:17:21.655Z,86.30
2023-01-21T05:19:50.905Z,85.32
2023-01-21T05:22:17.877Z,84.72
2023-01-21T05:24:44.586Z,84.04
2023-01-21T05:27:11.520Z,83.57
2023-01-21T05:29:38.393Z,83.17
2023-01-21T05:32:05.349Z,83.80
2023-01-21T05:34:32.270Z,82.95
2023-01-21T05:36:58.867Z,81.84
2023-01-21T05:39:25.503Z,81.99
2023-01-21T05:41:52.088Z,81.72
2023-01-21T05:44:18.738Z,82.36
2023-01-21T05:46:45.324Z,84.31
2023-01-21T05:49:11.907Z,84.91
2023-01-21T05:51:38.491Z,87.79
2023-01-21T05:54:05.140Z,89.86
2023-01-21T05:56:31.709Z,89.78
2023-01-21T05:58:58.338Z,89.20
2023-01-21T06:01:25.027Z,91.91
2023-01-21T06:03:51.680Z,94.19
2023-01-21T06:06:18.345Z,94.40
2023-01-21T06:08:44.910Z,94.72
2023-01-21T06:11:11.644Z,93.93
2023-01-21T06:13:38.261Z,93.67
2023-01-21T06:16:05.196Z,91.53
2023-01-21T06:18:31.787Z,90.05
2023-01-21T06:21:01.849Z,90.31
2023-01-21T06:23:28.594Z,90.88
2023-01-21T06:26:00.279Z,90.22
2023-01-21T06:28:26.902Z,88.87
2023-01-21T06:30:53.735Z,88.59
2023-01-21T06:33:20.514Z,86.57
2023-01-21T06:35:47.473Z,85.94
2023-01-21T06:38:14.455Z,84.67
2023-01-21T06:40:41.361Z,82.58
2023-01-21T06:43:08.013Z,81.43
2023-01-21T06:45:34.598Z,82.44
2023-01-21T06:48:01.201Z,81.14
2023-01-21T06:50:27.783Z,80.73
2023-01-21T06:52:54.477Z,80.99
2023-01-21T06:55:21.306Z,79.53
2023-01-21T06:57:47.878Z,78.00
2023-01-21T07:00:14.953Z,77.84
2023-01-21T07:02:41.856Z,79.20
2023-01-21T07:05:08.893Z,78.85
2023-01-21T07:07:35.921Z,78.19
2023-01-21T07:10:02.955Z,77.03
2023-01-21T07:12:29.681Z,76.94
2023-01-21T07:14:56.298Z,77.39
2023-01-21T07:17:23.197Z,77.29
2023-01-21T07:19:49.781Z,77.01
2023-01-21T07:22:16.450Z,77.31
2023-01-21T07:24:43.063Z,76.44
2023-01-21T07:27:10.936Z,74.91
2023-01-21T07:29:37.527Z,77.11
2023-01-21T07:32:04.480Z,75.56
2023-01-21T07:34:31.116Z,73.82
2023-01-21T07:36:57.727Z,75.32
2023-01-21T07:39:24.342Z,75.33
2023-01-21T07:41:50.978Z,75.49
2023-01-21T07:44:18.041Z,74.96
2023-01-21T07:46:44.702Z,73.77
2023-01-21T07:49:17.043Z,73.92
2023-01-21T07:51:47.192Z,73.81
2023-01-21T07:54:14.782Z,73.11
2023-01-21T07:56:41.712Z,71.55
2023-01-21T07:59:10.552Z,71.26
2023-01-21T08:01:37.421Z,73.39
2023-01-21T08:04:04.406Z,72.23
2023-01-21T08:06:31.194Z,72.05
2023-01-21T08:08:57.817Z,72.30
2023-01-21T08:11:24.703Z,73.53
2023-01-21T08:13:51.281Z,69.88
2023-01-21T08:16:17.963Z,70.32
2023-01-21T08:18:44.639Z,70.61
2023-01-21T08:21:11.283Z,69.95
2023-01-21T08:23:37.909Z,68.58
2023-01-21T08:26:05.890Z,69.71
2023-01-21T08:28:33.507Z,68.70
2023-01-21T08:31:05.251Z,69.17
2023-01-21T08:33:31.871Z,68.68
2023-01-21T08:36:01.046Z,67.85
2023-01-21T08:38:27.636Z,67.21
2023-01-21T08:40:55.803Z,66.99
2023-01-21T08:43:22.444Z,67.80
2023-01-21T08:45:49.145Z,66.92
2023-01-21T08:48:16.076Z,66.25
2023-01-21T08:50:42.885Z,66.77
2023-01-21T08:53:11.191Z,65.61
2023-01-21T08:55:37.961Z,65.49
2023-01-21T08:58:04.567Z,64.94
2023-01-21T09:00:31.362Z,64.94
2023-01-21T09:02:59.481Z,64.29
2023-01-21T09:05:26.165Z,64.76
2023-01-21T09:07:52.794Z,63.55
2023-01-21T09:10:37.870Z,63.31
2023-01-21T09:13:09.881Z,63.91
2023-01-21T09:15:41.286Z,62.52
2023-01-21T09:18:08.142Z,62.83
2023-01-21T09:20:35.078Z,62.49
2023-01-21T09:23:01.664Z,62.81
2023-01-21T09:25:28.321Z,62.09
2023-01-21T09:27:54.911Z,61.73
2023-01-21T09:30:21.520Z,62.01
2023-01-21T09:32:48.103Z,60.86
2023-01-21T09:35:15.019Z,61.94
2023-01-21T09:37:41.765Z,60.92
2023-01-21T09:40:15.647Z,59.44
2023-01-21T09:42:42.715Z,59.14
2023-01-21T09:45:14.682Z,59.38
2023-01-21T09:47:45.409Z,59.43
2023-01-21T09:50:16.674Z,57.93
2023-01-21T09:52:59.983Z,58.03
2023-01-21T09:55:38.932Z,58.00
2023-01-21T09:58:28.762Z,57.75
2023-01-21T10:00:57.861Z,55.60
2023-01-21T10:03:24.421Z,54.76
2023-01-21T10:06:09.881Z,54.45
2023-01-21T10:08:58.605Z,52.71
2023-01-21T10:11:49.294Z,51.21
2023-01-21T10:14:44.407Z,50.94
2023-01-21T10:17:17.369Z,50.86
2023-01-21T10:19:46.749Z,49.16
2023-01-21T10:22:19.020Z,49.34
2023-01-21T10:24:53.671Z,49.61
2023-01-21T10:27:22.409Z,49.83
2023-01-21T10:29:59.178Z,49.75
2023-01-21T10:32:28.104Z,47.68
2023-01-21T10:34:57.563Z,47.73
2023-01-21T10:37:50.344Z,47.84
2023-01-21T10:40:43.136Z,47.60
2023-01-21T10:43:33.161Z,49.08
2023-01-21T10:46:20.714Z,47.64
2023-01-21T10:48:52.498Z,46.15
2023-01-21T10:51:32.068Z,47.43
2023-01-21T10:54:07.037Z,47.56
2023-01-21T10:56:47.130Z,48.84
2023-01-21T10:59:19.346Z,49.64
2023-01-21T11:01:50.326Z,48.95
2023-01-21T11:04:19.559Z,49.42
2023-01-21T11:06:52.845Z,49.62
2023-01-21T11:09:19.845Z,49.22
2023-01-21T11:11:46.573Z,49.04
2023-01-21T11:14:13.218Z,46.74
2023-01-21T11:16:45.358Z,45.57
2023-01-21T11:19:26.648Z,44.26
2023-01-21T11:22:18.193Z,43.86
2023-01-21T11:24:49.553Z,45.81
2023-01-21T11:27:28.137Z,44.93
2023-01-21T11:29:54.691Z,45.65
2023-01-21T11:32:25.817Z,45.50
2023-01-21T11:34:56.919Z,45.67
2023-01-21T11:37:26.446Z,46.57
2023-01-21T11:39:59.405Z,47.54
2023-01-21T11:42:26.295Z,44.61
2023-01-21T11:44:57.490Z,45.72
2023-01-21T11:47:37.162Z,45.60
2023-01-21T11:50:12.080Z,44.96
2023-01-21T11:52:38.804Z,45.23
2023-01-21T11:55:19.145Z,44.78
2023-01-21T11:57:51.403Z,47.83
2023-01-21T12:00:20.835Z,48.16
2023-01-21T12:03:04.409Z,46.98
2023-01-21T12:05:33.689Z,48.29
2023-01-21T12:08:02.667Z,48.45
2023-01-21T12:10:33.506Z,49.63
2023-01-21T12:13:22.678Z,49.28
2023-01-21T12:16:10.349Z,49.89
2023-01-21T12:18:45.575Z,47.34
2023-01-21T12:21:41.177Z,49.42
2023-01-21T12:24:28.611Z,49.83
2023-01-21T12:27:18.323Z,49.92
2023-01-21T12:30:10.712Z,49.90
2023-01-21T12:32:48.666Z,49.35
2023-01-21T12:35:24.438Z,49.01
2023-01-21T12:38:05.015Z,50.50
2023-01-21T12:40:43.780Z,49.27
2023-01-21T12:43:18.767Z,51.44
2023-01-21T12:46:10.573Z,50.13
2023-01-21T12:48:46.782Z,50.50
2023-01-21T12:51:28.336Z,51.12
2023-01-21T12:54:19.439Z,50.56
2023-01-21T12:57:21.599Z,51.32
2023-01-21T12:59:57.919Z,51.68
2023-01-21T13:02:40.995Z,50.72
2023-01-21T13:05:17.750Z,52.00
2023-01-21T13:07:59.096Z,51.28
2023-01-21T13:10:42.233Z,51.36
2023-01-21T13:13:45.765Z,52.14
2023-01-21T13:16:12.685Z,51.85
2023-01-21T13:18:42.868Z,51.94
2023-01-21T13:21:44.727Z,51.59
2023-01-21T13:24:50.880Z,52.11
2023-01-21T13:27:55.567Z,52.65
2023-01-21T13:30:52.442Z,51.32
2023-01-21T13:33:45.135Z,52.11
2023-01-21T13:36:23.513Z,52.61
2023-01-21T13:38:56.666Z,51.97
2023-01-21T13:41:36.129Z,52.59
2023-01-21T13:44:30.520Z,52.46
2023-01-21T13:47:02.650Z,53.49
2023-01-21T13:49:57.178Z,53.48
2023-01-21T13:52:40.530Z,53.04
2023-01-21T13:55:19.207Z,54.01
2023-01-21T13:58:02.883Z,52.83
2023-01-21T14:00:35.522Z,53.23
2023-01-21T14:03:14.648Z,53.45
2023-01-21T14:06:02.930Z,54.12
2023-01-21T14:08:35.671Z,53.69
2023-01-21T14:11:12.611Z,54.21
2023-01-21T14:14:24.153Z,55.51
2023-01-21T14:17:23.289Z,53.85
2023-01-21T14:20:08.426Z,55.18
2023-01-21T14:23:04.383Z,54.08
2023-01-21T14:26:07.865Z,54.44
2023-01-21T14:28:40.326Z,54.51
2023-01-21T14:31:13.296Z,54.03
2023-01-21T14:33:52.673Z,55.17
2023-01-21T14:36:39.179Z,55.24
2023-01-21T14:39:13.194Z,55.43
2023-01-21T14:42:01.918Z,56.65
2023-01-21T14:44:50.407Z,58.21
2023-01-21T14:47:28.882Z,59.96
2023-01-21T14:49:57.525Z,59.27
2023-01-21T14:52:30.852Z,60.19
2023-01-21T14:54:58.603Z,65.51
2023-01-21T14:57:29.483Z,70.63
2023-01-21T15:00:29.070Z,74.46
2023-01-21T15:03:18.267Z,77.68
2023-01-21T15:05:50.719Z,76.95
2023-01-21T15:08:24.739Z,78.43
2023-01-21T15:10:58.808Z,80.38
2023-01-21T15:13:33.311Z,81.48
2023-01-21T15:16:19.097Z,83.54
2023-01-21T15:19:08.212Z,86.25
2023-01-21T15:21:40.642Z,85.49
2023-01-21T15:24:31.555Z,87.68
2023-01-21T15:27:21.087Z,90.00
2023-01-21T15:29:53.455Z,91.07
2023-01-21T15:32:30.164Z,91.93
2023-01-21T15:35:12.029Z,91.07
2023-01-21T15:37:41.312Z,92.66
2023-01-21T15:40:38.985Z,94.29
2023-01-21T15:43:14.347Z,92.37
2023-01-21T15:45:55.332Z,86.02
2023-01-21T15:48:40.820Z,82.74
2023-01-21T15:51:20.824Z,81.92
2023-01-21T15:54:19.095Z,79.78
2023-01-21T15:57:20.900Z,80.58
2023-01-21T16:00:07.203Z,80.64
2023-01-21T16:03:11.012Z,81.86
2023-01-21T16:05:49.728Z,80.25
2023-01-21T16:08:26.951Z,79.64
2023-01-21T16:11:22.147Z,81.11
2023-01-21T16:14:06.113Z,81.61
2023-01-21T16:16:35.463Z,82.51
2023-01-21T16:19:18.849Z,82.44
2023-01-21T16:21:50.886Z,83.10
2023-01-21T16:24:21.122Z,84.50
2023-01-21T16:26:47.776Z,82.96
2023-01-21T16:29:15.510Z,81.61
2023-01-21T16:32:00.309Z,80.25
2023-01-21T16:34:43.377Z,79.45
2023-01-21T16:37:15.594Z,81.98
2023-01-21T16:39:43.496Z,81.45
2023-01-21T16:42:36.181Z,81.10
2023-01-21T16:45:32.107Z,79.29
2023-01-21T16:47:59.361Z,80.74
2023-01-21T16:50:28.332Z,79.71
2023-01-21T16:52:56.900Z,80.25
2023-01-21T16:55:26.128Z,78.38
2023-01-21T16:57:55.930Z,78.84
2023-01-21T17:00:24.150Z,78.86
2023-01-21T17:02:51.274Z,78.71
2023-01-21T17:05:18.808Z,79.42
2023-01-21T17:07:50.066Z,79.81
2023-01-21T17:10:24.483Z,80.16
2023-01-21T17:12:59.508Z,79.93
2023-01-21T17:15:38.484Z,80.91
2023-01-21T17:18:08.692Z,81.40
2023-01-21T17:20:37.450Z,80.67
2023-01-21T17:23:09.646Z,82.63
2023-01-21T17:25:37.135Z,82.93
2023-01-21T17:28:28.588Z,82.06
2023-01-21T17:31:13.886Z,82.35
2023-01-21T17:33:41.001Z,81.08
2023-01-21T17:36:16.133Z,82.03
2023-01-21T17:38:45.294Z,82.14
2023-01-21T17:41:24.423Z,82.84
2023-01-21T17:43:52.863Z,82.77
2023-01-21T17:46:22.636Z,79.73
2023-01-21T17:48:53.393Z,80.71
2023-01-21T17:51:26.138Z,81.07
2023-01-21T17:53:57.877Z,79.71
2023-01-21T17:56:50.672Z,79.34
2023-01-21T17:59:35.245Z,78.35
2023-01-21T18:02:03.244Z,78.93
2023-01-21T18:04:30.105Z,79.07
2023-01-21T18:06:57.617Z,77.09
2023-01-21T18:09:25.030Z,77.18
2023-01-21T18:11:53.872Z,78.47
2023-01-21T18:14:22.481Z,78.57
2023-01-21T18:16:49.289Z,77.74
2023-01-21T18:19:28.312Z,75.24
2023-01-21T18:21:56.087Z,75.57
2023-01-21T18:24:23.215Z,75.88
2023-01-21T18:26:49.892Z,74.19
2023-01-21T18:29:18.212Z,73.39
2023-01-21T18:31:46.005Z,72.43
2023-01-21T18:34:12.637Z,73.48
2023-01-21T18:36:39.902Z,72.25
2023-01-21T18:39:11.863Z,71.81
2023-01-21T18:41:38.619Z,71.29
2023-01-21T18:44:05.372Z,71.41
2023-01-21T18:46:32.087Z,72.47
2023-01-21T18:48:58.725Z,71.37
2023-01-21T18:51:26.313Z,71.37
2023-01-21T18:53:53.314Z,69.82
2023-01-21T18:56:21.642Z,70.59
2023-01-21T18:58:48.343Z,70.14
2023-01-21T19:01:23.115Z,70.66
2023-01-21T19:03:52.890Z,70.31
2023-01-21T19:06:19.723Z,71.09
2023-01-21T19:08:48.572Z,70.67
2023-01-21T19:11:16.164Z,70.60
2023-01-21T19:13:42.734Z,70.30
2023-01-21T19:16:15.653Z,70.00
2023-01-21T19:18:42.349Z,71.16
2023-01-21T19:21:09.095Z,68.51
2023-01-21T19:23:37.089Z,68.76
2023-01-21T19:26:04.632Z,68.24
2023-01-21T19:28:31.605Z,68.17
2023-01-21T19:30:58.466Z,68.47
2023-01-21T19:33:25.681Z,69.10
2023-01-21T19:36:02.346Z,69.15
2023-01-21T19:38:29.151Z,68.55
2023-01-21T19:40:55.945Z,68.65
2023-01-21T19:43:23.139Z,68.06
2023-01-21T19:45:52.222Z,69.22
2023-01-21T19:48:20.906Z,68.85
2023-01-21T19:50:48.520Z,67.97
2023-01-21T19:53:17.561Z,68.28
2023-01-21T19:55:45.750Z,68.39
2023-01-21T19:58:21.009Z,68.10
2023-01-21T20:00:49.631Z,67.29
2023-01-21T20:03:18.306Z,67.63
2023-01-21T20:05:47.106Z,68.24
2023-01-21T20:08:19.084Z,70.12
2023-01-21T20:10:45.753Z,72.54
2023-01-21T20:13:14.095Z,74.47
2023-01-21T20:15:43.618Z,75.60
2023-01-21T20:18:18.866Z,77.81
2023-01-21T20:20:45.824Z,79.46
2023-01-21T20:23:16.810Z,79.92
2023-01-21T20:25:45.315Z,82.52
2023-01-21T20:28:22.335Z,89.58
2023-01-21T20:30:50.496Z,98.88
2023-01-21T20:33:19.871Z,100.00
2023-01-21T20:35:48.274Z,100.00
2023-01-21T20:38:17.050Z,100.00
2023-01-21T20:40:43.671Z,100.00
2023-01-21T20:43:10.757Z,100.00
2023-01-21T20:45:42.391Z,100.00
2023-01-21T20:48:27.348Z,100.00
2023-01-21T20:50:54.279Z,100.00
2023-01-21T20:53:21.492Z,100.00
2023-01-21T20:55:52.328Z,100.00
2023-01-21T20:58:22.123Z,100.00
2023-01-21T21:00:49.307Z,100.00
2023-01-21T21:03:18.166Z,100.00
2023-01-21T21:05:47.997Z,100.00
2023-01-21T21:08:17.209Z,100.00
2023-01-21T21:10:45.229Z,100.00
2023-01-21T21:13:13.124Z,100.00
2023-01-21T21:15:41.156Z,100.00
2023-01-21T21:18:07.819Z,100.00
2023-01-21T21:20:38.705Z,100.00
2023-01-21T21:23:06.464Z,100.00
2023-01-21T21:25:39.717Z,100.00
2023-01-21T21:28:06.407Z,100.00
2023-01-21T21:30:34.296Z,100.00
2023-01-21T21:33:01.669Z,100.00
2023-01-21T21:35:31.235Z,100.00
2023-01-21T21:38:00.998Z,100.00
2023-01-21T21:40:31.403Z,100.00
2023-01-21T21:43:17.260Z,100.00
2023-01-21T21:46:02.522Z,100.00
2023-01-21T21:48:39.272Z,100.00
2023-01-21T21:51:07.682Z,100.00
2023-01-21T21:53:34.360Z,100.00
2023-01-21T21:56:05.558Z,100.00
2023-01-21T21:58:32.159Z,100.00
2023-01-21T22:01:17.012Z,100.00
2023-01-21T22:03:44.608Z,100.00
2023-01-21T22:06:12.580Z,100.00
2023-01-21T22:08:41.681Z,100.00
2023-01-21T22:11:11.005Z,95.10
2023-01-21T22:13:40.233Z,88.46
2023-01-21T22:16:08.375Z,88.22
2023-01-21T22:18:35.367Z,85.08
2023-01-21T22:21:11.751Z,80.82
2023-01-21T22:23:38.810Z,80.53
2023-01-21T22:26:08.951Z,78.04
2023-01-21T22:28:36.146Z,77.14
2023-01-21T22:31:04.994Z,76.85
2023-01-21T22:33:33.228Z,75.77
2023-01-21T22:36:08.828Z,75.79
2023-01-21T22:38:38.935Z,74.99
2023-01-21T22:41:07.171Z,76.56
2023-01-21T22:43:34.506Z,76.42
2023-01-21T22:46:01.613Z,76.12
2023-01-21T22:48:28.639Z,75.68
2023-01-21T22:50:57.509Z,76.02
2023-01-21T22:53:25.396Z,74.08
2023-01-21T22:55:56.681Z,73.54
2023-01-21T22:58:24.703Z,74.29
2023-01-21T23:00:52.761Z,75.37
2023-01-21T23:03:20.275Z,74.51
2023-01-21T23:05:47.269Z,74.86
2023-01-21T23:08:14.771Z,76.83
2023-01-21T23:10:42.641Z,74.89
2023-01-21T23:13:10.639Z,73.77
2023-01-21T23:15:42.401Z,73.36
2023-01-21T23:18:09.311Z,74.11
2023-01-21T23:20:39.126Z,73.62
2023-01-21T23:23:05.859Z,72.18
2023-01-21T23:25:32.587Z,70.78
2023-01-21T23:27:59.595Z,70.72
2023-01-21T23:30:26.284Z,71.54
2023-01-21T23:32:53.153Z,69.56
2023-01-21T23:35:19.920Z,68.76
2023-01-21T23:37:46.767Z,69.04
2023-01-21T23:40:13.781Z,68.49
2023-01-21T23:42:41.210Z,66.68
2023-01-21T23:45:08.737Z,67.39
2023-01-21T23:47:35.754Z,67.04
2023-01-21T23:50:02.536Z,68.30
2023-01-21T23:52:29.374Z,66.35
2023-01-21T23:54:55.937Z,67.02
2023-01-21T23:57:22.760Z,66.24
2023-01-21T23:59:49.459Z,66.20
